sensor_id;sensor_type;location;lat;lon;timestamp;temperature;humidity
51476;DHT22;37554;50.362;7.568;2024-03-23T00:54:32;19.20;51.40
51476;DHT22;37554;50.362;7.568;2024-03-23T00:56:58;19.20;51.40
51476;DHT22;37554;50.362;7.568;2024-03-23T00:59:23;19.20;51.40
51476;DHT22;37554;50.362;7.568;2024-03-23T01:01:52;19.20;51.40
51476;DHT22;37554;50.362;7.568;2024-03-23T01:04:18;19.10;51.40
51476;DHT22;37554;50.362;7.568;2024-03-23T01:06:44;19.10;51.50
51476;DHT22;37554;50.362;7.568;2024-03-23T01:09:09;19.10;51.50
51476;DHT22;37554;50.362;7.568;2024-03-23T01:11:36;19.10;51.50
51476;DHT22;37554;50.362;7.568;2024-03-23T01:14:02;19.10;51.60
51476;DHT22;37554;50.362;7.568;2024-03-23T01:16:28;19.10;51.60
51476;DHT22;37554;50.362;7.568;2024-03-23T01:18:54;19.10;51.60
51476;DHT22;37554;50.362;7.568;2024-03-23T01:21:19;19.10;51.70
51476;DHT22;37554;50.362;7.568;2024-03-23T01:23:45;19.10;51.80
51476;DHT22;37554;50.362;7.568;2024-03-23T01:26:11;19.10;51.80
51476;DHT22;37554;50.362;7.568;2024-03-23T01:28:36;19.00;51.80
51476;DHT22;37554;50.362;7.568;2024-03-23T01:31:02;19.00;51.70
51476;DHT22;37554;50.362;7.568;2024-03-23T01:33:28;19.00;51.70
51476;DHT22;37554;50.362;7.568;2024-03-23T01:35:53;19.00;51.90
51476;DHT22;37554;50.362;7.568;2024-03-23T01:38:19;19.00;52.00
51476;DHT22;37554;50.362;7.568;2024-03-23T01:40:44;19.00;52.00
51476;DHT22;37554;50.362;7.568;2024-03-23T01:43:10;18.90;52.00
51476;DHT22;37554;50.362;7.568;2024-03-23T01:45:36;18.90;52.10
51476;DHT22;37554;50.362;7.568;2024-03-23T01:48:02;18.90;52.10
51476;DHT22;37554;50.362;7.568;2024-03-23T01:50:28;18.90;52.20
51476;DHT22;37554;50.362;7.568;2024-03-23T01:52:56;18.80;52.20
51476;DHT22;37554;50.362;7.568;2024-03-23T01:55:21;18.80;52.20
51476;DHT22;37554;50.362;7.568;2024-03-23T01:57:47;18.80;52.20
51476;DHT22;37554;50.362;7.568;2024-03-23T02:00:13;18.80;52.30
51476;DHT22;37554;50.362;7.568;2024-03-23T02:02:43;18.80;52.30
51476;DHT22;37554;50.362;7.568;2024-03-23T02:05:10;18.80;52.30
51476;DHT22;37554;50.362;7.568;2024-03-23T02:07:37;18.70;52.30
51476;DHT22;37554;50.362;7.568;2024-03-23T02:10:03;18.70;52.40
51476;DHT22;37554;50.362;7.568;2024-03-23T02:12:29;18.70;52.30
51476;DHT22;37554;50.362;7.568;2024-03-23T02:14:54;18.70;52.30
51476;DHT22;37554;50.362;7.568;2024-03-23T02:17:20;18.70;52.30
51476;DHT22;37554;50.362;7.568;2024-03-23T02:19:45;18.70;52.40
51476;DHT22;37554;50.362;7.568;2024-03-23T02:22:12;18.60;52.40
51476;DHT22;37554;50.362;7.568;2024-03-23T02:24:37;18.60;52.40
51476;DHT22;37554;50.362;7.568;2024-03-23T02:27:03;18.60;52.40
51476;DHT22;37554;50.362;7.568;2024-03-23T02:29:29;18.60;52.40
51476;DHT22;37554;50.362;7.568;2024-03-23T02:31:54;18.60;52.40
51476;DHT22;37554;50.362;7.568;2024-03-23T02:34:20;18.60;52.50
51476;DHT22;37554;50.362;7.568;2024-03-23T02:36:45;18.60;52.40
51476;DHT22;37554;50.362;7.568;2024-03-23T02:39:11;18.50;52.40
51476;DHT22;37554;50.362;7.568;2024-03-23T02:41:37;18.50;52.40
51476;DHT22;37554;50.362;7.568;2024-03-23T02:44:02;18.50;52.40
51476;DHT22;37554;50.362;7.568;2024-03-23T02:46:28;18.50;52.40
51476;DHT22;37554;50.362;7.568;2024-03-23T02:48:53;18.50;52.40
51476;DHT22;37554;50.362;7.568;2024-03-23T02:51:19;18.40;52.30
51476;DHT22;37554;50.362;7.568;2024-03-23T02:53:45;18.40;53.00
51476;DHT22;37554;50.362;7.568;2024-03-23T02:56:10;18.40;52.30
51476;DHT22;37554;50.362;7.568;2024-03-23T02:58:41;18.40;52.30
51476;DHT22;37554;50.362;7.568;2024-03-23T03:01:07;18.40;52.40
51476;DHT22;37554;50.362;7.568;2024-03-23T03:03:32;18.40;52.50
51476;DHT22;37554;50.362;7.568;2024-03-23T03:05:58;18.30;52.40
51476;DHT22;37554;50.362;7.568;2024-03-23T03:08:23;18.30;52.50
51476;DHT22;37554;50.362;7.568;2024-03-23T03:10:49;18.30;52.50
51476;DHT22;37554;50.362;7.568;2024-03-23T03:13:14;18.30;52.50
51476;DHT22;37554;50.362;7.568;2024-03-23T03:15:44;18.20;52.40
51476;DHT22;37554;50.362;7.568;2024-03-23T03:18:09;18.20;52.40
51476;DHT22;37554;50.362;7.568;2024-03-23T03:20:38;18.20;52.40
51476;DHT22;37554;50.362;7.568;2024-03-23T03:23:05;18.20;52.40
51476;DHT22;37554;50.362;7.568;2024-03-23T03:25:30;18.20;52.30
51476;DHT22;37554;50.362;7.568;2024-03-23T03:27:56;18.20;52.40
51476;DHT22;37554;50.362;7.568;2024-03-23T03:30:22;18.20;52.30
51476;DHT22;37554;50.362;7.568;2024-03-23T03:32:47;18.10;52.90
51476;DHT22;37554;50.362;7.568;2024-03-23T03:35:13;18.10;52.20
51476;DHT22;37554;50.362;7.568;2024-03-23T03:37:38;18.10;52.30
51476;DHT22;37554;50.362;7.568;2024-03-23T03:40:05;18.10;52.30
51476;DHT22;37554;50.362;7.568;2024-03-23T03:42:34;18.10;52.30
51476;DHT22;37554;50.362;7.568;2024-03-23T03:44:59;18.10;52.30
51476;DHT22;37554;50.362;7.568;2024-03-23T03:47:25;18.10;52.20
51476;DHT22;37554;50.362;7.568;2024-03-23T03:49:50;18.00;52.20
51476;DHT22;37554;50.362;7.568;2024-03-23T03:52:16;18.00;52.30
51476;DHT22;37554;50.362;7.568;2024-03-23T03:54:42;18.00;52.90
51476;DHT22;37554;50.362;7.568;2024-03-23T03:57:07;18.00;52.30
51476;DHT22;37554;50.362;7.568;2024-03-23T03:59:33;17.90;52.20
51476;DHT22;37554;50.362;7.568;2024-03-23T04:01:58;17.90;52.30
51476;DHT22;37554;50.362;7.568;2024-03-23T04:04:24;17.90;52.30
51476;DHT22;37554;50.362;7.568;2024-03-23T04:06:49;17.90;52.30
51476;DHT22;37554;50.362;7.568;2024-03-23T04:09:15;17.90;52.30
51476;DHT22;37554;50.362;7.568;2024-03-23T04:11:40;17.90;52.30
51476;DHT22;37554;50.362;7.568;2024-03-23T04:14:06;17.80;52.20
51476;DHT22;37554;50.362;7.568;2024-03-23T04:16:34;17.80;52.20
51476;DHT22;37554;50.362;7.568;2024-03-23T04:19:00;17.80;52.30
51476;DHT22;37554;50.362;7.568;2024-03-23T04:21:26;17.80;52.20
51476;DHT22;37554;50.362;7.568;2024-03-23T04:23:52;17.70;52.10
51476;DHT22;37554;50.362;7.568;2024-03-23T04:26:17;17.70;52.10
51476;DHT22;37554;50.362;7.568;2024-03-23T04:28:43;17.70;52.10
51476;DHT22;37554;50.362;7.568;2024-03-23T04:31:09;17.70;52.10
51476;DHT22;37554;50.362;7.568;2024-03-23T04:33:35;17.60;52.60
51476;DHT22;37554;50.362;7.568;2024-03-23T04:36:00;17.70;52.10
51476;DHT22;37554;50.362;7.568;2024-03-23T04:38:26;17.60;51.90
51476;DHT22;37554;50.362;7.568;2024-03-23T04:40:59;17.60;51.90
51476;DHT22;37554;50.362;7.568;2024-03-23T04:43:26;17.60;51.80
51476;DHT22;37554;50.362;7.568;2024-03-23T04:45:52;17.50;51.70
51476;DHT22;37554;50.362;7.568;2024-03-23T04:48:22;17.50;51.70
51476;DHT22;37554;50.362;7.568;2024-03-23T04:50:49;17.50;51.70
51476;DHT22;37554;50.362;7.568;2024-03-23T04:53:15;17.50;51.70
51476;DHT22;37554;50.362;7.568;2024-03-23T04:55:42;17.50;51.60
51476;DHT22;37554;50.362;7.568;2024-03-23T04:58:08;17.40;51.50
51476;DHT22;37554;50.362;7.568;2024-03-23T05:00:33;17.40;51.50
51476;DHT22;37554;50.362;7.568;2024-03-23T05:02:59;17.40;51.50
51476;DHT22;37554;50.362;7.568;2024-03-23T05:05:25;17.30;51.40
51476;DHT22;37554;50.362;7.568;2024-03-23T05:07:50;17.30;51.40
51476;DHT22;37554;50.362;7.568;2024-03-23T05:10:16;17.30;51.40
51476;DHT22;37554;50.362;7.568;2024-03-23T05:12:41;17.30;51.40
51476;DHT22;37554;50.362;7.568;2024-03-23T05:15:07;17.30;51.40
51476;DHT22;37554;50.362;7.568;2024-03-23T05:17:33;17.30;51.40
51476;DHT22;37554;50.362;7.568;2024-03-23T05:19:59;17.30;51.40
51476;DHT22;37554;50.362;7.568;2024-03-23T05:22:25;17.20;51.40
51476;DHT22;37554;50.362;7.568;2024-03-23T05:24:50;17.20;51.40
51476;DHT22;37554;50.362;7.568;2024-03-23T05:27:16;17.20;51.40
51476;DHT22;37554;50.362;7.568;2024-03-23T05:29:42;17.10;51.40
51476;DHT22;37554;50.362;7.568;2024-03-23T05:32:07;17.20;51.50
51476;DHT22;37554;50.362;7.568;2024-03-23T05:34:33;17.10;51.30
51476;DHT22;37554;50.362;7.568;2024-03-23T05:36:59;17.10;51.30
51476;DHT22;37554;50.362;7.568;2024-03-23T05:39:24;17.10;51.30
51476;DHT22;37554;50.362;7.568;2024-03-23T05:41:50;17.10;51.30
51476;DHT22;37554;50.362;7.568;2024-03-23T05:44:16;17.10;51.30
51476;DHT22;37554;50.362;7.568;2024-03-23T05:46:42;17.10;51.30
51476;DHT22;37554;50.362;7.568;2024-03-23T05:49:08;17.10;51.30
51476;DHT22;37554;50.362;7.568;2024-03-23T05:51:34;17.00;51.30
51476;DHT22;37554;50.362;7.568;2024-03-23T05:54:00;17.00;51.30
51476;DHT22;37554;50.362;7.568;2024-03-23T05:56:26;17.00;51.30
51476;DHT22;37554;50.362;7.568;2024-03-23T05:58:52;17.00;51.30
51476;DHT22;37554;50.362;7.568;2024-03-23T06:01:17;17.00;51.30
51476;DHT22;37554;50.362;7.568;2024-03-23T06:03:43;17.00;51.20
51476;DHT22;37554;50.362;7.568;2024-03-23T06:06:10;16.90;51.10
51476;DHT22;37554;50.362;7.568;2024-03-23T06:08:37;16.90;51.10
51476;DHT22;37554;50.362;7.568;2024-03-23T06:11:04;17.00;51.20
51476;DHT22;37554;50.362;7.568;2024-03-23T06:13:31;17.00;51.10
51476;DHT22;37554;50.362;7.568;2024-03-23T06:15:57;17.00;51.10
51476;DHT22;37554;50.362;7.568;2024-03-23T06:18:24;17.00;51.10
51476;DHT22;37554;50.362;7.568;2024-03-23T06:20:49;17.00;51.10
51476;DHT22;37554;50.362;7.568;2024-03-23T06:23:15;17.00;51.10
51476;DHT22;37554;50.362;7.568;2024-03-23T06:25:42;17.00;51.00
51476;DHT22;37554;50.362;7.568;2024-03-23T06:28:08;17.00;51.00
51476;DHT22;37554;50.362;7.568;2024-03-23T06:30:34;17.00;50.90
51476;DHT22;37554;50.362;7.568;2024-03-23T06:32:59;17.00;50.80
51476;DHT22;37554;50.362;7.568;2024-03-23T06:35:25;17.00;50.70
51476;DHT22;37554;50.362;7.568;2024-03-23T06:37:50;17.00;50.70
51476;DHT22;37554;50.362;7.568;2024-03-23T06:40:16;17.00;50.70
51476;DHT22;37554;50.362;7.568;2024-03-23T06:42:41;17.00;50.60
51476;DHT22;37554;50.362;7.568;2024-03-23T06:45:07;17.10;50.60
51476;DHT22;37554;50.362;7.568;2024-03-23T06:47:33;17.10;50.50
51476;DHT22;37554;50.362;7.568;2024-03-23T06:50:03;17.10;50.50
51476;DHT22;37554;50.362;7.568;2024-03-23T06:52:29;17.10;50.40
51476;DHT22;37554;50.362;7.568;2024-03-23T06:54:54;17.10;50.40
51476;DHT22;37554;50.362;7.568;2024-03-23T06:57:20;17.10;50.40
51476;DHT22;37554;50.362;7.568;2024-03-23T06:59:46;17.10;50.30
51476;DHT22;37554;50.362;7.568;2024-03-23T07:02:11;17.10;50.20
51476;DHT22;37554;50.362;7.568;2024-03-23T07:04:37;17.20;50.20
51476;DHT22;37554;50.362;7.568;2024-03-23T07:07:05;17.20;50.10
51476;DHT22;37554;50.362;7.568;2024-03-23T07:09:31;17.20;50.10
51476;DHT22;37554;50.362;7.568;2024-03-23T07:11:56;17.20;50.10
51476;DHT22;37554;50.362;7.568;2024-03-23T07:14:23;17.20;50.00
51476;DHT22;37554;50.362;7.568;2024-03-23T07:16:48;17.30;49.90
51476;DHT22;37554;50.362;7.568;2024-03-23T07:19:15;17.30;49.80
51476;DHT22;37554;50.362;7.568;2024-03-23T07:21:42;17.40;49.80
51476;DHT22;37554;50.362;7.568;2024-03-23T07:24:08;17.40;49.70
51476;DHT22;37554;50.362;7.568;2024-03-23T07:26:33;17.40;49.70
51476;DHT22;37554;50.362;7.568;2024-03-23T07:28:59;17.40;49.70
51476;DHT22;37554;50.362;7.568;2024-03-23T07:31:24;17.40;49.80
51476;DHT22;37554;50.362;7.568;2024-03-23T07:33:50;17.40;49.70
51476;DHT22;37554;50.362;7.568;2024-03-23T07:36:16;17.50;49.70
51476;DHT22;37554;50.362;7.568;2024-03-23T07:38:42;17.50;49.60
51476;DHT22;37554;50.362;7.568;2024-03-23T07:41:11;17.60;49.50
51476;DHT22;37554;50.362;7.568;2024-03-23T07:43:38;17.60;49.50
51476;DHT22;37554;50.362;7.568;2024-03-23T07:46:04;17.60;49.50
51476;DHT22;37554;50.362;7.568;2024-03-23T07:48:30;17.50;49.10
51476;DHT22;37554;50.362;7.568;2024-03-23T07:51:03;16.90;48.60
51476;DHT22;37554;50.362;7.568;2024-03-23T07:53:30;16.50;49.10
51476;DHT22;37554;50.362;7.568;2024-03-23T07:55:57;16.30;49.70
51476;DHT22;37554;50.362;7.568;2024-03-23T07:58:23;16.40;50.00
51476;DHT22;37554;50.362;7.568;2024-03-23T08:00:49;16.70;50.00
51476;DHT22;37554;50.362;7.568;2024-03-23T08:03:15;17.00;49.80
51476;DHT22;37554;50.362;7.568;2024-03-23T08:05:41;17.30;49.50
51476;DHT22;37554;50.362;7.568;2024-03-23T08:08:06;17.50;49.30
51476;DHT22;37554;50.362;7.568;2024-03-23T08:10:32;17.70;49.10
51476;DHT22;37554;50.362;7.568;2024-03-23T08:12:58;18.00;49.00
51476;DHT22;37554;50.362;7.568;2024-03-23T08:15:23;18.10;48.80
51476;DHT22;37554;50.362;7.568;2024-03-23T08:17:50;18.40;48.60
51476;DHT22;37554;50.362;7.568;2024-03-23T08:20:15;18.60;48.40
51476;DHT22;37554;50.362;7.568;2024-03-23T08:22:41;18.80;48.10
51476;DHT22;37554;50.362;7.568;2024-03-23T08:25:06;19.00;48.00
51476;DHT22;37554;50.362;7.568;2024-03-23T08:27:32;19.20;47.80
51476;DHT22;37554;50.362;7.568;2024-03-23T08:29:58;19.40;47.70
51476;DHT22;37554;50.362;7.568;2024-03-23T08:32:24;19.60;47.60
51476;DHT22;37554;50.362;7.568;2024-03-23T08:34:50;19.80;47.40
51476;DHT22;37554;50.362;7.568;2024-03-23T08:37:15;20.00;47.10
51476;DHT22;37554;50.362;7.568;2024-03-23T08:39:43;20.20;46.90
51476;DHT22;37554;50.362;7.568;2024-03-23T08:42:09;20.50;46.70
51476;DHT22;37554;50.362;7.568;2024-03-23T08:44:34;20.70;46.40
51476;DHT22;37554;50.362;7.568;2024-03-23T08:47:01;20.90;46.00
51476;DHT22;37554;50.362;7.568;2024-03-23T08:49:27;21.20;45.60
51476;DHT22;37554;50.362;7.568;2024-03-23T08:51:53;21.40;45.20
51476;DHT22;37554;50.362;7.568;2024-03-23T08:54:19;21.10;43.00
51476;DHT22;37554;50.362;7.568;2024-03-23T08:56:46;20.50;42.10
51476;DHT22;37554;50.362;7.568;2024-03-23T08:59:11;20.20;42.20
51476;DHT22;37554;50.362;7.568;2024-03-23T09:01:37;20.40;42.10
51476;DHT22;37554;50.362;7.568;2024-03-23T09:04:04;20.70;41.40
51476;DHT22;37554;50.362;7.568;2024-03-23T09:06:29;21.00;41.00
51476;DHT22;37554;50.362;7.568;2024-03-23T09:08:55;21.20;40.30
51476;DHT22;37554;50.362;7.568;2024-03-23T09:11:21;21.50;39.70
51476;DHT22;37554;50.362;7.568;2024-03-23T09:13:46;21.70;39.20
51476;DHT22;37554;50.362;7.568;2024-03-23T09:16:12;21.80;38.70
51476;DHT22;37554;50.362;7.568;2024-03-23T09:18:38;22.00;38.30
51476;DHT22;37554;50.362;7.568;2024-03-23T09:21:10;22.20;38.10
51476;DHT22;37554;50.362;7.568;2024-03-23T09:23:36;22.30;37.70
51476;DHT22;37554;50.362;7.568;2024-03-23T09:26:05;22.50;37.60
51476;DHT22;37554;50.362;7.568;2024-03-23T09:28:33;22.60;38.00
51476;DHT22;37554;50.362;7.568;2024-03-23T09:31:05;22.90;37.60
51476;DHT22;37554;50.362;7.568;2024-03-23T09:33:31;23.00;37.30
51476;DHT22;37554;50.362;7.568;2024-03-23T09:35:57;22.90;37.40
51476;DHT22;37554;50.362;7.568;2024-03-23T09:38:25;22.70;37.60
51476;DHT22;37554;50.362;7.568;2024-03-23T09:40:53;22.60;37.90
51476;DHT22;37554;50.362;7.568;2024-03-23T09:43:19;22.50;37.90
51476;DHT22;37554;50.362;7.568;2024-03-23T09:45:45;22.40;38.00
51476;DHT22;37554;50.362;7.568;2024-03-23T09:48:12;22.30;38.10
51476;DHT22;37554;50.362;7.568;2024-03-23T09:50:42;22.20;37.90
51476;DHT22;37554;50.362;7.568;2024-03-23T09:53:12;22.40;37.80
51476;DHT22;37554;50.362;7.568;2024-03-23T09:55:41;22.40;37.70
51476;DHT22;37554;50.362;7.568;2024-03-23T09:58:08;22.50;37.40
51476;DHT22;37554;50.362;7.568;2024-03-23T10:00:37;22.80;37.00
51476;DHT22;37554;50.362;7.568;2024-03-23T10:03:04;23.10;37.20
51476;DHT22;37554;50.362;7.568;2024-03-23T10:05:32;23.30;36.00
51476;DHT22;37554;50.362;7.568;2024-03-23T10:08:02;23.30;35.70
51476;DHT22;37554;50.362;7.568;2024-03-23T10:10:43;23.40;35.20
51476;DHT22;37554;50.362;7.568;2024-03-23T10:13:09;23.60;34.60
51476;DHT22;37554;50.362;7.568;2024-03-23T10:15:35;23.70;34.30
51476;DHT22;37554;50.362;7.568;2024-03-23T10:18:18;24.00;33.80
51476;DHT22;37554;50.362;7.568;2024-03-23T10:20:47;24.20;32.60
51476;DHT22;37554;50.362;7.568;2024-03-23T10:23:16;24.50;31.50
51476;DHT22;37554;50.362;7.568;2024-03-23T10:25:42;24.40;32.80
51476;DHT22;37554;50.362;7.568;2024-03-23T10:28:08;24.10;32.60
51476;DHT22;37554;50.362;7.568;2024-03-23T10:30:35;23.50;32.70
51476;DHT22;37554;50.362;7.568;2024-03-23T10:33:10;22.90;32.90
51476;DHT22;37554;50.362;7.568;2024-03-23T10:35:39;22.70;32.50
51476;DHT22;37554;50.362;7.568;2024-03-23T10:38:05;22.30;33.50
51476;DHT22;37554;50.362;7.568;2024-03-23T10:40:34;21.80;33.60
51476;DHT22;37554;50.362;7.568;2024-03-23T10:43:00;21.70;34.10
51476;DHT22;37554;50.362;7.568;2024-03-23T10:45:26;21.60;34.30
51476;DHT22;37554;50.362;7.568;2024-03-23T10:47:51;21.40;34.40
51476;DHT22;37554;50.362;7.568;2024-03-23T10:50:17;21.30;34.80
51476;DHT22;37554;50.362;7.568;2024-03-23T10:52:49;21.00;34.90
51476;DHT22;37554;50.362;7.568;2024-03-23T10:55:17;20.70;35.50
51476;DHT22;37554;50.362;7.568;2024-03-23T10:57:52;20.50;36.50
51476;DHT22;37554;50.362;7.568;2024-03-23T11:00:19;20.10;37.10
51476;DHT22;37554;50.362;7.568;2024-03-23T11:02:47;19.90;37.60
51476;DHT22;37554;50.362;7.568;2024-03-23T11:05:28;19.70;37.80
51476;DHT22;37554;50.362;7.568;2024-03-23T11:07:54;19.70;37.70
51476;DHT22;37554;50.362;7.568;2024-03-23T11:10:30;19.80;37.90
51476;DHT22;37554;50.362;7.568;2024-03-23T11:13:22;19.60;38.20
51476;DHT22;37554;50.362;7.568;2024-03-23T11:15:48;19.40;38.70
51476;DHT22;37554;50.362;7.568;2024-03-23T11:18:20;19.30;39.00
51476;DHT22;37554;50.362;7.568;2024-03-23T11:20:46;19.30;39.00
51476;DHT22;37554;50.362;7.568;2024-03-23T11:23:28;19.20;39.20
51476;DHT22;37554;50.362;7.568;2024-03-23T11:25:54;19.10;39.50
51476;DHT22;37554;50.362;7.568;2024-03-23T11:28:19;19.20;39.40
51476;DHT22;37554;50.362;7.568;2024-03-23T11:30:45;19.10;39.40
51476;DHT22;37554;50.362;7.568;2024-03-23T11:33:12;19.10;39.70
51476;DHT22;37554;50.362;7.568;2024-03-23T11:35:38;19.50;40.00
51476;DHT22;37554;50.362;7.568;2024-03-23T11:38:06;19.80;39.70
51476;DHT22;37554;50.362;7.568;2024-03-23T11:40:33;20.20;39.30
51476;DHT22;37554;50.362;7.568;2024-03-23T11:43:01;20.50;39.10
51476;DHT22;37554;50.362;7.568;2024-03-23T11:45:27;22.00;37.70
51476;DHT22;37554;50.362;7.568;2024-03-23T11:48:06;22.50;36.80
51476;DHT22;37554;50.362;7.568;2024-03-23T11:50:33;22.60;36.50
51476;DHT22;37554;50.362;7.568;2024-03-23T11:53:16;22.50;36.70
51476;DHT22;37554;50.362;7.568;2024-03-23T11:56:02;22.30;37.00
51476;DHT22;37554;50.362;7.568;2024-03-23T11:58:28;22.10;37.30
51476;DHT22;37554;50.362;7.568;2024-03-23T12:01:01;21.80;37.80
51476;DHT22;37554;50.362;7.568;2024-03-23T12:03:28;21.60;38.20
51476;DHT22;37554;50.362;7.568;2024-03-23T12:05:55;21.40;38.60
51476;DHT22;37554;50.362;7.568;2024-03-23T12:11:14;21.10;39.10
51476;DHT22;37554;50.362;7.568;2024-03-23T12:13:42;21.10;39.30
51476;DHT22;37554;50.362;7.568;2024-03-23T12:18:35;21.00;39.60
51476;DHT22;37554;50.362;7.568;2024-03-23T12:21:01;20.90;39.80
51476;DHT22;37554;50.362;7.568;2024-03-23T12:23:26;20.80;39.90
51476;DHT22;37554;50.362;7.568;2024-03-23T12:25:53;20.70;40.00
51476;DHT22;37554;50.362;7.568;2024-03-23T12:28:19;20.70;40.20
51476;DHT22;37554;50.362;7.568;2024-03-23T12:30:44;20.70;40.40
51476;DHT22;37554;50.362;7.568;2024-03-23T12:33:10;20.70;40.40
51476;DHT22;37554;50.362;7.568;2024-03-23T12:35:36;21.10;40.50
51476;DHT22;37554;50.362;7.568;2024-03-23T12:38:02;22.90;38.50
51476;DHT22;37554;50.362;7.568;2024-03-23T12:40:28;23.20;37.50
51476;DHT22;37554;50.362;7.568;2024-03-23T12:42:54;23.20;37.90
51476;DHT22;37554;50.362;7.568;2024-03-23T12:45:20;24.60;36.40
51476;DHT22;37554;50.362;7.568;2024-03-23T12:47:46;26.50;34.60
51476;DHT22;37554;50.362;7.568;2024-03-23T12:50:11;27.20;33.10
51476;DHT22;37554;50.362;7.568;2024-03-23T12:52:37;27.00;32.90
51476;DHT22;37554;50.362;7.568;2024-03-23T12:55:04;27.10;32.00
51476;DHT22;37554;50.362;7.568;2024-03-23T12:57:33;25.80;32.20
51476;DHT22;37554;50.362;7.568;2024-03-23T12:59:59;24.40;33.20
51476;DHT22;37554;50.362;7.568;2024-03-23T13:02:25;23.30;34.60
51476;DHT22;37554;50.362;7.568;2024-03-23T13:04:52;22.80;35.40
51476;DHT22;37554;50.362;7.568;2024-03-23T13:07:19;22.50;36.10
51476;DHT22;37554;50.362;7.568;2024-03-23T13:09:45;22.30;36.50
51476;DHT22;37554;50.362;7.568;2024-03-23T13:12:11;22.10;36.90
51476;DHT22;37554;50.362;7.568;2024-03-23T13:14:39;22.00;37.20
51476;DHT22;37554;50.362;7.568;2024-03-23T13:17:06;22.00;37.60
51476;DHT22;37554;50.362;7.568;2024-03-23T13:19:33;24.20;36.40
51476;DHT22;37554;50.362;7.568;2024-03-23T13:22:00;27.20;33.90
51476;DHT22;37554;50.362;7.568;2024-03-23T13:24:28;29.80;31.70
51476;DHT22;37554;50.362;7.568;2024-03-23T13:26:55;31.50;30.20
51476;DHT22;37554;50.362;7.568;2024-03-23T13:29:21;32.70;29.60
51476;DHT22;37554;50.362;7.568;2024-03-23T13:31:51;33.60;29.10
51476;DHT22;37554;50.362;7.568;2024-03-23T13:34:17;34.40;28.70
51476;DHT22;37554;50.362;7.568;2024-03-23T13:36:44;34.90;28.50
51476;DHT22;37554;50.362;7.568;2024-03-23T13:39:10;35.40;28.30
51476;DHT22;37554;50.362;7.568;2024-03-23T13:41:40;35.30;28.00
51476;DHT22;37554;50.362;7.568;2024-03-23T13:44:07;34.10;28.40
51476;DHT22;37554;50.362;7.568;2024-03-23T13:46:33;34.20;28.60
51476;DHT22;37554;50.362;7.568;2024-03-23T13:48:59;32.70;27.80
51476;DHT22;37554;50.362;7.568;2024-03-23T13:51:25;29.60;28.40
51476;DHT22;37554;50.362;7.568;2024-03-23T13:53:53;26.80;29.50
51476;DHT22;37554;50.362;7.568;2024-03-23T13:56:19;24.60;31.10
51476;DHT22;37554;50.362;7.568;2024-03-23T13:58:45;23.60;32.90
51476;DHT22;37554;50.362;7.568;2024-03-23T14:01:13;23.50;33.70
51476;DHT22;37554;50.362;7.568;2024-03-23T14:03:39;23.50;34.10
51476;DHT22;37554;50.362;7.568;2024-03-23T14:06:05;23.60;34.10
51476;DHT22;37554;50.362;7.568;2024-03-23T14:08:33;23.70;34.10
51476;DHT22;37554;50.362;7.568;2024-03-23T14:11:04;23.90;34.10
51476;DHT22;37554;50.362;7.568;2024-03-23T14:13:30;24.10;34.00
51476;DHT22;37554;50.362;7.568;2024-03-23T14:15:57;24.10;34.10
51476;DHT22;37554;50.362;7.568;2024-03-23T14:18:23;24.00;34.20
51476;DHT22;37554;50.362;7.568;2024-03-23T14:20:49;24.10;34.50
51476;DHT22;37554;50.362;7.568;2024-03-23T14:23:16;24.00;34.60
51476;DHT22;37554;50.362;7.568;2024-03-23T14:25:41;23.90;34.70
51476;DHT22;37554;50.362;7.568;2024-03-23T14:28:07;23.80;35.00
51476;DHT22;37554;50.362;7.568;2024-03-23T14:30:39;23.70;35.30
51476;DHT22;37554;50.362;7.568;2024-03-23T14:33:05;23.50;35.70
51476;DHT22;37554;50.362;7.568;2024-03-23T14:35:30;23.50;35.70
51476;DHT22;37554;50.362;7.568;2024-03-23T14:37:58;23.50;35.70
51476;DHT22;37554;50.362;7.568;2024-03-23T14:40:24;23.50;35.70
51476;DHT22;37554;50.362;7.568;2024-03-23T14:42:53;23.40;35.70
51476;DHT22;37554;50.362;7.568;2024-03-23T14:45:19;23.30;35.80
51476;DHT22;37554;50.362;7.568;2024-03-23T14:47:45;23.20;35.90
51476;DHT22;37554;50.362;7.568;2024-03-23T14:50:11;23.10;36.20
51476;DHT22;37554;50.362;7.568;2024-03-23T14:52:41;23.00;36.30
51476;DHT22;37554;50.362;7.568;2024-03-23T14:55:07;22.90;36.40
51476;DHT22;37554;50.362;7.568;2024-03-23T14:57:34;22.80;36.40
51476;DHT22;37554;50.362;7.568;2024-03-23T15:00:00;22.80;36.60
51476;DHT22;37554;50.362;7.568;2024-03-23T15:02:26;22.80;36.60
51476;DHT22;37554;50.362;7.568;2024-03-23T15:04:53;22.90;36.40
51476;DHT22;37554;50.362;7.568;2024-03-23T15:07:19;23.10;36.00
51476;DHT22;37554;50.362;7.568;2024-03-23T15:09:45;23.10;35.60
51476;DHT22;37554;50.362;7.568;2024-03-23T15:12:10;23.00;35.60
51476;DHT22;37554;50.362;7.568;2024-03-23T15:14:37;22.90;35.70
51476;DHT22;37554;50.362;7.568;2024-03-23T15:17:02;22.80;35.60
51476;DHT22;37554;50.362;7.568;2024-03-23T15:19:32;22.90;36.20
51476;DHT22;37554;50.362;7.568;2024-03-23T15:21:58;23.00;35.40
51476;DHT22;37554;50.362;7.568;2024-03-23T15:24:23;23.30;35.20
51476;DHT22;37554;50.362;7.568;2024-03-23T15:26:49;23.60;34.80
51476;DHT22;37554;50.362;7.568;2024-03-23T15:29:17;23.70;35.10
51476;DHT22;37554;50.362;7.568;2024-03-23T15:31:43;23.70;35.60
51476;DHT22;37554;50.362;7.568;2024-03-23T15:34:09;23.60;37.10
51476;DHT22;37554;50.362;7.568;2024-03-23T15:36:37;23.50;37.00
51476;DHT22;37554;50.362;7.568;2024-03-23T15:39:04;23.30;37.60
51476;DHT22;37554;50.362;7.568;2024-03-23T15:41:31;23.20;38.10
51476;DHT22;37554;50.362;7.568;2024-03-23T15:43:56;23.20;38.40
51476;DHT22;37554;50.362;7.568;2024-03-23T15:46:22;23.20;38.90
51476;DHT22;37554;50.362;7.568;2024-03-23T15:48:47;23.10;39.30
51476;DHT22;37554;50.362;7.568;2024-03-23T15:51:14;23.10;39.50
51476;DHT22;37554;50.362;7.568;2024-03-23T15:53:40;23.00;39.70
51476;DHT22;37554;50.362;7.568;2024-03-23T15:56:06;23.00;40.00
51476;DHT22;37554;50.362;7.568;2024-03-23T15:58:32;22.90;40.10
51476;DHT22;37554;50.362;7.568;2024-03-23T16:01:01;22.80;40.20
51476;DHT22;37554;50.362;7.568;2024-03-23T16:03:27;22.60;40.50
51476;DHT22;37554;50.362;7.568;2024-03-23T16:05:58;22.60;40.80
51476;DHT22;37554;50.362;7.568;2024-03-23T16:08:24;22.40;41.30
51476;DHT22;37554;50.362;7.568;2024-03-23T16:10:50;22.30;42.30
51476;DHT22;37554;50.362;7.568;2024-03-23T16:13:17;22.20;42.00
51476;DHT22;37554;50.362;7.568;2024-03-23T16:15:54;22.10;42.20
51476;DHT22;37554;50.362;7.568;2024-03-23T16:18:20;22.00;42.40
51476;DHT22;37554;50.362;7.568;2024-03-23T16:21:05;21.90;42.50
51476;DHT22;37554;50.362;7.568;2024-03-23T16:23:32;21.90;42.90
51476;DHT22;37554;50.362;7.568;2024-03-23T16:25:58;21.80;42.60